Aumsville, OR

10:29 PM PST on December 18, 2014 (GMT -0800)
'Aumsville Ponds' Park | Change Station
CLOSE
Current Station
Personal Weather Station
Location: Aumsville, OR
Elevation: 377 ft
Nearby Weather Stations
Active Advisory: Special Statement

Elev 377 ft 44.83 °N, 122.86 °W | Updated 3 seconds ago

Rain
Rain
49.4 °F
Feels Like 48 °F
N
4.0
Wind Variable Wind from South
Gusts 7.0 mph

Today
High -- | Low -- °F
--% Chance of Precip.
Yesterday
High -- | Low -- °F
Precip. -- in
7:44 AM 4:32 PM
Waning Crescent, 9% visible
Pressure 29.80 in
Visibility 10.0 miles
Clouds Overcast 5000 ft
Windchill 48 °F
Dew Point 48 °F
Humidity 93%
Rainfall 0.09 in
Snow Depth Not available.
UV 0 out of 12
Pollen 1.10 out of 12
Air Quality Not available.
Flu Activity Not available.
METAR KSLE 190556Z AUTO 19013KT 10SM -RA OVC050 11/08 A2980 RMK AO2 SLP091 P0001 60006 T01110078 10128 20100 53008

More Conditions Fewer Conditions

Pressure 29.80 in
Visibility 10.0 miles
Clouds Overcast 5000 ft
Windchill 48 °F
Dew Point 48 °F
Humidity 93%
Rainfall 0.09 in
Snow Depth Not available.
UV 0 out of 12
Pollen 1.10 out of 12
Air Quality Not available.
Flu Activity Not available.
METAR KSLE 190556Z AUTO 19013KT 10SM -RA OVC050 11/08 A2980 RMK AO2 SLP091 P0001 60006 T01110078 10128 20100 53008

More Conditions Fewer Conditions

10-Day Weather Forecast

Almanac

Astronomy

Dec. 18, 2014 Rise Set
Actual Time
Civil Twilight
Nautical Twilight
Astronomical Twilight
Moon
Length of Visible Light
Length of Day
Tomorrow will be .
, % of the Moon is Illuminated

Today's Extremes

State Highs State Lows

Community

WunderPhotos

Upload Photos

1,778,953 photos uploaded!

WunderBlogs® & News

Nearby

Air Quality

  Air Quality AQ Index Pollutant
Not available.

Snow Depth

Station Depth Elevation

Earthquake Activity

City Distance Mag. Time & Date
Minimum magnitude displayed is 2.5.

Coastal Water Temperatures

Place Temperature

Nearby Weather Stations